sensor_id;sensor_type;location;lat;lon;timestamp;P1;durP1;ratioP1;P2;durP2;ratioP2
62709;SDS011;48770;51.624;5.886;2024-01-07T00:01:28;1.00;;;0.80;;
62709;SDS011;48770;51.624;5.886;2024-01-07T00:03:53;0.73;;;0.70;;
62709;SDS011;48770;51.624;5.886;2024-01-07T00:06:19;1.00;;;0.90;;
62709;SDS011;48770;51.624;5.886;2024-01-07T00:08:44;0.90;;;0.80;;
62709;SDS011;48770;51.624;5.886;2024-01-07T00:11:13;1.40;;;0.80;;
62709;SDS011;48770;51.624;5.886;2024-01-07T00:13:42;0.82;;;0.70;;
62709;SDS011;48770;51.624;5.886;2024-01-07T00:16:17;1.30;;;0.90;;
62709;SDS011;48770;51.624;5.886;2024-01-07T00:18:43;0.93;;;0.80;;
62709;SDS011;48770;51.624;5.886;2024-01-07T00:21:09;1.38;;;1.05;;
62709;SDS011;48770;51.624;5.886;2024-01-07T00:23:35;0.75;;;0.70;;
62709;SDS011;48770;51.624;5.886;2024-01-07T00:26:03;0.80;;;0.70;;
62709;SDS011;48770;51.624;5.886;2024-01-07T00:28:29;1.02;;;0.68;;
62709;SDS011;48770;51.624;5.886;2024-01-07T00:30:55;0.90;;;0.63;;
62709;SDS011;48770;51.624;5.886;2024-01-07T00:33:20;0.95;;;0.80;;
62709;SDS011;48770;51.624;5.886;2024-01-07T00:35:45;0.95;;;0.75;;
62709;SDS011;48770;51.624;5.886;2024-01-07T00:38:37;0.70;;;0.70;;
62709;SDS011;48770;51.624;5.886;2024-01-07T00:41:16;1.40;;;0.80;;
62709;SDS011;48770;51.624;5.886;2024-01-07T00:43:45;0.60;;;0.60;;
62709;SDS011;48770;51.624;5.886;2024-01-07T00:46:44;1.00;;;0.80;;
62709;SDS011;48770;51.624;5.886;2024-01-07T00:49:03;0.77;;;0.60;;
62709;SDS011;48770;51.624;5.886;2024-01-07T00:51:31;0.70;;;0.70;;
62709;SDS011;48770;51.624;5.886;2024-01-07T00:53:57;0.82;;;0.50;;
62709;SDS011;48770;51.624;5.886;2024-01-07T00:56:25;0.77;;;0.70;;
62709;SDS011;48770;51.624;5.886;2024-01-07T00:58:51;1.05;;;0.75;;
62709;SDS011;48770;51.624;5.886;2024-01-07T01:01:17;0.70;;;0.63;;
62709;SDS011;48770;51.624;5.886;2024-01-07T01:03:45;0.90;;;0.70;;
62709;SDS011;48770;51.624;5.886;2024-01-07T01:07:07;0.90;;;0.70;;
62709;SDS011;48770;51.624;5.886;2024-01-07T01:09:32;1.20;;;0.68;;
62709;SDS011;48770;51.624;5.886;2024-01-07T01:12:00;0.98;;;0.70;;
62709;SDS011;48770;51.624;5.886;2024-01-07T01:17:33;0.95;;;0.85;;
62709;SDS011;48770;51.624;5.886;2024-01-07T01:23:28;1.00;;;0.80;;
62709;SDS011;48770;51.624;5.886;2024-01-07T01:25:53;0.70;;;0.60;;
62709;SDS011;48770;51.624;5.886;2024-01-07T01:28:39;0.90;;;0.70;;
62709;SDS011;48770;51.624;5.886;2024-01-07T01:31:04;1.00;;;0.80;;
62709;SDS011;48770;51.624;5.886;2024-01-07T01:33:30;1.35;;;0.90;;
62709;SDS011;48770;51.624;5.886;2024-01-07T01:35:55;0.90;;;0.80;;
62709;SDS011;48770;51.624;5.886;2024-01-07T01:38:21;2.15;;;1.33;;
62709;SDS011;48770;51.624;5.886;2024-01-07T01:40:55;1.08;;;0.88;;
62709;SDS011;48770;51.624;5.886;2024-01-07T01:43:27;1.25;;;1.00;;
62709;SDS011;48770;51.624;5.886;2024-01-07T01:45:59;1.33;;;0.90;;
62709;SDS011;48770;51.624;5.886;2024-01-07T01:48:25;1.60;;;1.10;;
62709;SDS011;48770;51.624;5.886;2024-01-07T01:50:52;1.77;;;1.30;;
62709;SDS011;48770;51.624;5.886;2024-01-07T01:53:18;1.65;;;1.33;;
62709;SDS011;48770;51.624;5.886;2024-01-07T01:55:47;1.80;;;1.40;;
62709;SDS011;48770;51.624;5.886;2024-01-07T01:58:13;1.95;;;1.55;;
62709;SDS011;48770;51.624;5.886;2024-01-07T02:00:39;1.83;;;1.52;;
62709;SDS011;48770;51.624;5.886;2024-01-07T02:03:08;2.13;;;1.60;;
62709;SDS011;48770;51.624;5.886;2024-01-07T02:05:39;2.35;;;1.80;;
62709;SDS011;48770;51.624;5.886;2024-01-07T02:08:13;2.80;;;1.75;;
62709;SDS011;48770;51.624;5.886;2024-01-07T02:10:46;2.33;;;2.00;;
62709;SDS011;48770;51.624;5.886;2024-01-07T02:20:46;1.92;;;1.55;;
62709;SDS011;48770;51.624;5.886;2024-01-07T02:27:04;2.50;;;1.73;;
62709;SDS011;48770;51.624;5.886;2024-01-07T02:29:42;2.10;;;1.73;;
62709;SDS011;48770;51.624;5.886;2024-01-07T02:32:13;2.53;;;1.85;;
62709;SDS011;48770;51.624;5.886;2024-01-07T02:35:18;3.15;;;2.00;;
62709;SDS011;48770;51.624;5.886;2024-01-07T02:37:49;2.75;;;1.80;;
62709;SDS011;48770;51.624;5.886;2024-01-07T02:43:53;2.90;;;2.08;;
62709;SDS011;48770;51.624;5.886;2024-01-07T02:46:19;2.03;;;1.67;;
62709;SDS011;48770;51.624;5.886;2024-01-07T02:48:52;2.25;;;1.90;;
62709;SDS011;48770;51.624;5.886;2024-01-07T02:51:17;2.08;;;1.77;;
62709;SDS011;48770;51.624;5.886;2024-01-07T02:53:43;2.03;;;1.73;;
62709;SDS011;48770;51.624;5.886;2024-01-07T02:56:08;2.92;;;1.88;;
62709;SDS011;48770;51.624;5.886;2024-01-07T02:58:34;2.00;;;1.80;;
62709;SDS011;48770;51.624;5.886;2024-01-07T03:01:00;2.20;;;1.92;;
62709;SDS011;48770;51.624;5.886;2024-01-07T03:03:25;2.30;;;1.90;;
62709;SDS011;48770;51.624;5.886;2024-01-07T03:05:54;2.83;;;2.13;;
62709;SDS011;48770;51.624;5.886;2024-01-07T03:08:23;3.05;;;2.03;;
62709;SDS011;48770;51.624;5.886;2024-01-07T03:10:49;1.98;;;1.77;;
62709;SDS011;48770;51.624;5.886;2024-01-07T03:13:17;2.25;;;1.77;;
62709;SDS011;48770;51.624;5.886;2024-01-07T03:15:46;3.20;;;1.77;;
62709;SDS011;48770;51.624;5.886;2024-01-07T03:18:15;1.92;;;1.75;;
62709;SDS011;48770;51.624;5.886;2024-01-07T03:20:40;2.08;;;1.70;;
62709;SDS011;48770;51.624;5.886;2024-01-07T03:23:06;1.52;;;1.35;;
62709;SDS011;48770;51.624;5.886;2024-01-07T03:25:31;2.38;;;1.83;;
62709;SDS011;48770;51.624;5.886;2024-01-07T03:28:08;1.50;;;1.38;;
62709;SDS011;48770;51.624;5.886;2024-01-07T03:30:34;2.05;;;1.60;;
62709;SDS011;48770;51.624;5.886;2024-01-07T03:33:22;2.15;;;1.55;;
62709;SDS011;48770;51.624;5.886;2024-01-07T03:35:47;1.90;;;1.48;;
62709;SDS011;48770;51.624;5.886;2024-01-07T03:38:15;1.70;;;1.40;;
62709;SDS011;48770;51.624;5.886;2024-01-07T03:40:41;2.13;;;1.38;;
62709;SDS011;48770;51.624;5.886;2024-01-07T03:43:16;1.75;;;1.25;;
62709;SDS011;48770;51.624;5.886;2024-01-07T03:45:50;1.60;;;1.25;;
62709;SDS011;48770;51.624;5.886;2024-01-07T03:48:25;2.58;;;1.40;;
62709;SDS011;48770;51.624;5.886;2024-01-07T03:50:51;2.33;;;1.52;;
62709;SDS011;48770;51.624;5.886;2024-01-07T03:56:25;1.33;;;1.13;;
62709;SDS011;48770;51.624;5.886;2024-01-07T03:58:54;1.92;;;1.50;;
62709;SDS011;48770;51.624;5.886;2024-01-07T04:01:28;1.42;;;1.30;;
62709;SDS011;48770;51.624;5.886;2024-01-07T04:03:57;1.65;;;1.20;;
62709;SDS011;48770;51.624;5.886;2024-01-07T04:06:34;1.75;;;1.25;;
62709;SDS011;48770;51.624;5.886;2024-01-07T04:09:09;2.42;;;1.48;;
62709;SDS011;48770;51.624;5.886;2024-01-07T04:12:05;1.27;;;1.17;;
62709;SDS011;48770;51.624;5.886;2024-01-07T04:14:44;2.17;;;1.35;;
62709;SDS011;48770;51.624;5.886;2024-01-07T04:17:13;1.80;;;1.58;;
62709;SDS011;48770;51.624;5.886;2024-01-07T04:19:48;1.40;;;1.30;;
62709;SDS011;48770;51.624;5.886;2024-01-07T04:22:40;1.75;;;1.30;;
62709;SDS011;48770;51.624;5.886;2024-01-07T04:25:05;1.42;;;1.10;;
62709;SDS011;48770;51.624;5.886;2024-01-07T04:27:35;1.30;;;1.17;;
62709;SDS011;48770;51.624;5.886;2024-01-07T04:30:01;1.65;;;1.25;;
62709;SDS011;48770;51.624;5.886;2024-01-07T04:32:30;1.48;;;1.38;;
62709;SDS011;48770;51.624;5.886;2024-01-07T04:34:56;1.75;;;1.10;;
62709;SDS011;48770;51.624;5.886;2024-01-07T04:37:24;1.50;;;1.10;;
62709;SDS011;48770;51.624;5.886;2024-01-07T04:39:50;1.88;;;1.17;;
62709;SDS011;48770;51.624;5.886;2024-01-07T04:42:16;1.15;;;0.90;;
62709;SDS011;48770;51.624;5.886;2024-01-07T04:44:42;1.70;;;1.38;;
62709;SDS011;48770;51.624;5.886;2024-01-07T04:47:26;1.10;;;1.00;;
62709;SDS011;48770;51.624;5.886;2024-01-07T04:49:53;1.42;;;1.33;;
62709;SDS011;48770;51.624;5.886;2024-01-07T04:52:19;1.20;;;1.08;;
62709;SDS011;48770;51.624;5.886;2024-01-07T04:54:45;1.50;;;1.05;;
62709;SDS011;48770;51.624;5.886;2024-01-07T04:57:20;1.58;;;1.17;;
62709;SDS011;48770;51.624;5.886;2024-01-07T04:59:46;1.27;;;1.05;;
62709;SDS011;48770;51.624;5.886;2024-01-07T05:02:13;1.20;;;1.00;;
62709;SDS011;48770;51.624;5.886;2024-01-07T05:05:15;0.82;;;0.82;;
62709;SDS011;48770;51.624;5.886;2024-01-07T05:07:46;2.40;;;1.00;;
62709;SDS011;48770;51.624;5.886;2024-01-07T05:10:12;1.20;;;1.10;;
62709;SDS011;48770;51.624;5.886;2024-01-07T05:12:37;1.08;;;0.98;;
62709;SDS011;48770;51.624;5.886;2024-01-07T05:15:03;1.02;;;0.75;;
62709;SDS011;48770;51.624;5.886;2024-01-07T05:17:29;1.35;;;0.82;;
62709;SDS011;48770;51.624;5.886;2024-01-07T05:19:58;1.38;;;1.10;;
62709;SDS011;48770;51.624;5.886;2024-01-07T05:22:31;1.10;;;0.95;;
62709;SDS011;48770;51.624;5.886;2024-01-07T05:25:02;1.27;;;1.00;;
62709;SDS011;48770;51.624;5.886;2024-01-07T05:27:51;0.98;;;0.82;;
62709;SDS011;48770;51.624;5.886;2024-01-07T05:30:16;1.48;;;1.00;;
62709;SDS011;48770;51.624;5.886;2024-01-07T05:32:44;1.17;;;0.80;;
62709;SDS011;48770;51.624;5.886;2024-01-07T05:35:10;1.50;;;1.10;;
62709;SDS011;48770;51.624;5.886;2024-01-07T05:37:36;1.75;;;1.10;;
62709;SDS011;48770;51.624;5.886;2024-01-07T05:40:04;1.00;;;0.77;;
62709;SDS011;48770;51.624;5.886;2024-01-07T05:42:33;1.23;;;0.77;;
62709;SDS011;48770;51.624;5.886;2024-01-07T05:44:58;0.80;;;0.73;;
62709;SDS011;48770;51.624;5.886;2024-01-07T05:47:29;1.10;;;0.70;;
62709;SDS011;48770;51.624;5.886;2024-01-07T05:49:55;0.90;;;0.82;;
62709;SDS011;48770;51.624;5.886;2024-01-07T05:52:30;1.27;;;1.15;;
62709;SDS011;48770;51.624;5.886;2024-01-07T05:54:55;1.48;;;0.75;;
62709;SDS011;48770;51.624;5.886;2024-01-07T05:57:21;1.20;;;1.00;;
62709;SDS011;48770;51.624;5.886;2024-01-07T05:59:46;0.90;;;0.77;;
62709;SDS011;48770;51.624;5.886;2024-01-07T06:02:12;0.60;;;0.60;;
62709;SDS011;48770;51.624;5.886;2024-01-07T06:04:41;1.05;;;0.90;;
62709;SDS011;48770;51.624;5.886;2024-01-07T06:07:07;1.00;;;0.90;;
62709;SDS011;48770;51.624;5.886;2024-01-07T06:09:32;0.80;;;0.80;;
62709;SDS011;48770;51.624;5.886;2024-01-07T06:11:58;0.80;;;0.65;;
62709;SDS011;48770;51.624;5.886;2024-01-07T06:14:32;1.10;;;0.77;;
62709;SDS011;48770;51.624;5.886;2024-01-07T06:16:59;0.90;;;0.80;;
62709;SDS011;48770;51.624;5.886;2024-01-07T06:19:37;1.00;;;0.70;;
62709;SDS011;48770;51.624;5.886;2024-01-07T06:22:44;1.13;;;0.88;;
62709;SDS011;48770;51.624;5.886;2024-01-07T06:25:50;0.85;;;0.68;;
62709;SDS011;48770;51.624;5.886;2024-01-07T06:28:19;1.40;;;0.80;;
62709;SDS011;48770;51.624;5.886;2024-01-07T06:30:47;0.93;;;0.77;;
62709;SDS011;48770;51.624;5.886;2024-01-07T06:33:15;0.98;;;0.60;;
62709;SDS011;48770;51.624;5.886;2024-01-07T06:35:52;1.02;;;0.90;;
62709;SDS011;48770;51.624;5.886;2024-01-07T06:38:18;0.85;;;0.63;;
62709;SDS011;48770;51.624;5.886;2024-01-07T06:40:46;0.63;;;0.52;;
62709;SDS011;48770;51.624;5.886;2024-01-07T06:43:20;1.00;;;0.90;;
62709;SDS011;48770;51.624;5.886;2024-01-07T06:45:45;0.98;;;0.70;;
62709;SDS011;48770;51.624;5.886;2024-01-07T06:48:11;0.85;;;0.70;;
62709;SDS011;48770;51.624;5.886;2024-01-07T06:53:43;0.90;;;0.83;;
62709;SDS011;48770;51.624;5.886;2024-01-07T06:56:31;0.85;;;0.80;;
62709;SDS011;48770;51.624;5.886;2024-01-07T07:02:31;0.85;;;0.70;;
62709;SDS011;48770;51.624;5.886;2024-01-07T07:05:05;0.67;;;0.60;;
62709;SDS011;48770;51.624;5.886;2024-01-07T07:07:30;0.70;;;0.60;;
62709;SDS011;48770;51.624;5.886;2024-01-07T07:09:56;0.80;;;0.60;;
62709;SDS011;48770;51.624;5.886;2024-01-07T07:12:24;1.10;;;0.80;;
62709;SDS011;48770;51.624;5.886;2024-01-07T07:15:11;0.60;;;0.60;;
62709;SDS011;48770;51.624;5.886;2024-01-07T07:17:38;0.90;;;0.75;;
62709;SDS011;48770;51.624;5.886;2024-01-07T07:20:04;1.63;;;0.85;;
62709;SDS011;48770;51.624;5.886;2024-01-07T07:22:33;0.50;;;0.50;;
62709;SDS011;48770;51.624;5.886;2024-01-07T07:25:00;0.73;;;0.63;;
62709;SDS011;48770;51.624;5.886;2024-01-07T07:30:18;0.73;;;0.60;;
62709;SDS011;48770;51.624;5.886;2024-01-07T07:32:44;1.70;;;0.65;;
62709;SDS011;48770;51.624;5.886;2024-01-07T07:35:13;0.60;;;0.52;;
62709;SDS011;48770;51.624;5.886;2024-01-07T07:37:42;1.00;;;0.55;;
62709;SDS011;48770;51.624;5.886;2024-01-07T07:40:08;0.93;;;0.73;;
62709;SDS011;48770;51.624;5.886;2024-01-07T07:42:38;1.05;;;0.77;;
62709;SDS011;48770;51.624;5.886;2024-01-07T07:45:03;0.77;;;0.60;;
62709;SDS011;48770;51.624;5.886;2024-01-07T07:47:29;0.77;;;0.63;;
62709;SDS011;48770;51.624;5.886;2024-01-07T07:49:55;0.65;;;0.50;;
62709;SDS011;48770;51.624;5.886;2024-01-07T07:52:20;0.77;;;0.70;;
62709;SDS011;48770;51.624;5.886;2024-01-07T07:54:50;1.25;;;0.70;;
62709;SDS011;48770;51.624;5.886;2024-01-07T07:57:16;0.63;;;0.47;;
62709;SDS011;48770;51.624;5.886;2024-01-07T07:59:50;0.60;;;0.60;;
62709;SDS011;48770;51.624;5.886;2024-01-07T08:02:18;0.68;;;0.50;;
62709;SDS011;48770;51.624;5.886;2024-01-07T08:04:43;0.70;;;0.70;;
62709;SDS011;48770;51.624;5.886;2024-01-07T08:07:12;1.08;;;0.60;;
62709;SDS011;48770;51.624;5.886;2024-01-07T08:09:38;0.70;;;0.70;;
62709;SDS011;48770;51.624;5.886;2024-01-07T08:12:12;0.80;;;0.70;;
62709;SDS011;48770;51.624;5.886;2024-01-07T08:14:38;0.52;;;0.52;;
62709;SDS011;48770;51.624;5.886;2024-01-07T08:17:07;0.50;;;0.40;;
62709;SDS011;48770;51.624;5.886;2024-01-07T08:19:33;0.98;;;0.80;;
62709;SDS011;48770;51.624;5.886;2024-01-07T08:21:59;0.90;;;0.50;;
62709;SDS011;48770;51.624;5.886;2024-01-07T08:24:25;0.93;;;0.70;;
62709;SDS011;48770;51.624;5.886;2024-01-07T08:27:12;0.93;;;0.68;;
62709;SDS011;48770;51.624;5.886;2024-01-07T08:29:48;0.90;;;0.80;;
62709;SDS011;48770;51.624;5.886;2024-01-07T08:32:32;0.70;;;0.52;;
62709;SDS011;48770;51.624;5.886;2024-01-07T08:41:04;0.52;;;0.47;;
62709;SDS011;48770;51.624;5.886;2024-01-07T08:43:38;0.40;;;0.40;;
62709;SDS011;48770;51.624;5.886;2024-01-07T08:46:06;0.52;;;0.45;;
62709;SDS011;48770;51.624;5.886;2024-01-07T08:48:36;0.75;;;0.70;;
62709;SDS011;48770;51.624;5.886;2024-01-07T08:51:38;0.85;;;0.70;;
62709;SDS011;48770;51.624;5.886;2024-01-07T08:54:13;0.40;;;0.38;;
62709;SDS011;48770;51.624;5.886;2024-01-07T08:56:41;0.63;;;0.50;;
62709;SDS011;48770;51.624;5.886;2024-01-07T08:59:07;1.05;;;0.70;;
62709;SDS011;48770;51.624;5.886;2024-01-07T09:01:33;0.68;;;0.50;;
62709;SDS011;48770;51.624;5.886;2024-01-07T09:03:59;0.70;;;0.40;;
62709;SDS011;48770;51.624;5.886;2024-01-07T09:06:27;0.70;;;0.57;;
62709;SDS011;48770;51.624;5.886;2024-01-07T09:08:59;0.38;;;0.38;;
62709;SDS011;48770;51.624;5.886;2024-01-07T09:11:25;0.65;;;0.40;;
62709;SDS011;48770;51.624;5.886;2024-01-07T09:13:56;0.88;;;0.47;;
62709;SDS011;48770;51.624;5.886;2024-01-07T09:16:33;0.60;;;0.50;;
62709;SDS011;48770;51.624;5.886;2024-01-07T09:19:25;0.70;;;0.47;;
62709;SDS011;48770;51.624;5.886;2024-01-07T09:21:53;0.47;;;0.45;;
62709;SDS011;48770;51.624;5.886;2024-01-07T09:27:19;0.38;;;0.30;;
62709;SDS011;48770;51.624;5.886;2024-01-07T09:29:44;0.60;;;0.40;;
62709;SDS011;48770;51.624;5.886;2024-01-07T09:32:10;1.02;;;0.50;;
62709;SDS011;48770;51.624;5.886;2024-01-07T09:34:35;0.38;;;0.38;;
62709;SDS011;48770;51.624;5.886;2024-01-07T09:37:01;0.60;;;0.35;;
62709;SDS011;48770;51.624;5.886;2024-01-07T09:39:26;0.60;;;0.60;;
62709;SDS011;48770;51.624;5.886;2024-01-07T09:41:54;0.70;;;0.57;;
62709;SDS011;48770;51.624;5.886;2024-01-07T09:44:25;0.40;;;0.40;;
62709;SDS011;48770;51.624;5.886;2024-01-07T09:46:58;0.50;;;0.40;;
62709;SDS011;48770;51.624;5.886;2024-01-07T09:49:45;0.60;;;0.30;;
62709;SDS011;48770;51.624;5.886;2024-01-07T09:52:44;0.55;;;0.40;;
62709;SDS011;48770;51.624;5.886;2024-01-07T09:55:27;0.30;;;0.30;;
62709;SDS011;48770;51.624;5.886;2024-01-07T09:58:06;0.57;;;0.40;;
62709;SDS011;48770;51.624;5.886;2024-01-07T10:00:37;0.60;;;0.40;;
62709;SDS011;48770;51.624;5.886;2024-01-07T10:03:42;1.10;;;0.60;;
62709;SDS011;48770;51.624;5.886;2024-01-07T10:06:07;0.30;;;0.20;;
62709;SDS011;48770;51.624;5.886;2024-01-07T10:08:33;0.60;;;0.50;;
62709;SDS011;48770;51.624;5.886;2024-01-07T10:10:59;0.50;;;0.40;;
62709;SDS011;48770;51.624;5.886;2024-01-07T10:13:27;0.80;;;0.65;;
62709;SDS011;48770;51.624;5.886;2024-01-07T10:16:01;0.57;;;0.40;;
62709;SDS011;48770;51.624;5.886;2024-01-07T10:18:27;0.75;;;0.60;;
62709;SDS011;48770;51.624;5.886;2024-01-07T10:20:56;1.10;;;0.50;;
62709;SDS011;48770;51.624;5.886;2024-01-07T10:23:29;0.55;;;0.55;;
62709;SDS011;48770;51.624;5.886;2024-01-07T10:25:54;0.57;;;0.50;;
62709;SDS011;48770;51.624;5.886;2024-01-07T10:28:22;1.00;;;0.43;;
62709;SDS011;48770;51.624;5.886;2024-01-07T10:30:50;0.70;;;0.43;;
62709;SDS011;48770;51.624;5.886;2024-01-07T10:33:19;0.50;;;0.40;;
62709;SDS011;48770;51.624;5.886;2024-01-07T10:35:56;0.65;;;0.40;;
62709;SDS011;48770;51.624;5.886;2024-01-07T10:39:13;0.73;;;0.50;;
62709;SDS011;48770;51.624;5.886;2024-01-07T10:41:46;0.50;;;0.40;;
62709;SDS011;48770;51.624;5.886;2024-01-07T10:45:02;1.02;;;0.82;;
62709;SDS011;48770;51.624;5.886;2024-01-07T10:54:13;0.68;;;0.60;;
62709;SDS011;48770;51.624;5.886;2024-01-07T10:56:52;0.65;;;0.50;;
62709;SDS011;48770;51.624;5.886;2024-01-07T10:59:23;0.38;;;0.32;;
62709;SDS011;48770;51.624;5.886;2024-01-07T11:01:51;1.05;;;0.40;;
62709;SDS011;48770;51.624;5.886;2024-01-07T11:04:23;0.77;;;0.55;;
62709;SDS011;48770;51.624;5.886;2024-01-07T11:10:18;0.80;;;0.50;;
62709;SDS011;48770;51.624;5.886;2024-01-07T11:12:56;0.80;;;0.60;;
62709;SDS011;48770;51.624;5.886;2024-01-07T11:15:55;0.77;;;0.50;;
62709;SDS011;48770;51.624;5.886;2024-01-07T11:21:29;0.77;;;0.55;;
62709;SDS011;48770;51.624;5.886;2024-01-07T11:27:19;0.57;;;0.45;;
62709;SDS011;48770;51.624;5.886;2024-01-07T11:29:53;1.00;;;0.50;;
62709;SDS011;48770;51.624;5.886;2024-01-07T11:32:22;0.77;;;0.50;;
62709;SDS011;48770;51.624;5.886;2024-01-07T11:34:50;0.90;;;0.50;;
62709;SDS011;48770;51.624;5.886;2024-01-07T11:37:18;0.82;;;0.60;;
62709;SDS011;48770;51.624;5.886;2024-01-07T11:39:57;0.60;;;0.50;;
62709;SDS011;48770;51.624;5.886;2024-01-07T11:42:39;1.00;;;0.60;;
62709;SDS011;48770;51.624;5.886;2024-01-07T11:45:13;1.30;;;0.60;;
62709;SDS011;48770;51.624;5.886;2024-01-07T11:47:41;0.40;;;0.40;;
62709;SDS011;48770;51.624;5.886;2024-01-07T11:50:49;0.70;;;0.52;;
62709;SDS011;48770;51.624;5.886;2024-01-07T11:53:39;1.50;;;0.88;;
62709;SDS011;48770;51.624;5.886;2024-01-07T11:56:05;0.65;;;0.50;;
62709;SDS011;48770;51.624;5.886;2024-01-07T11:58:47;1.08;;;0.65;;
62709;SDS011;48770;51.624;5.886;2024-01-07T12:01:15;0.80;;;0.70;;
62709;SDS011;48770;51.624;5.886;2024-01-07T12:03:59;0.70;;;0.50;;
62709;SDS011;48770;51.624;5.886;2024-01-07T12:06:44;1.15;;;0.68;;
62709;SDS011;48770;51.624;5.886;2024-01-07T12:09:15;0.50;;;0.40;;
62709;SDS011;48770;51.624;5.886;2024-01-07T12:12:03;1.10;;;0.60;;
62709;SDS011;48770;51.624;5.886;2024-01-07T12:14:57;0.73;;;0.50;;
62709;SDS011;48770;51.624;5.886;2024-01-07T12:18:01;1.40;;;0.50;;
62709;SDS011;48770;51.624;5.886;2024-01-07T12:20:34;0.82;;;0.50;;
62709;SDS011;48770;51.624;5.886;2024-01-07T12:23:15;1.15;;;0.75;;
62709;SDS011;48770;51.624;5.886;2024-01-07T12:25:50;0.50;;;0.40;;
62709;SDS011;48770;51.624;5.886;2024-01-07T12:35:19;0.47;;;0.40;;
62709;SDS011;48770;51.624;5.886;2024-01-07T12:37:48;0.60;;;0.43;;
62709;SDS011;48770;51.624;5.886;2024-01-07T12:40:21;0.80;;;0.70;;
62709;SDS011;48770;51.624;5.886;2024-01-07T12:42:47;0.88;;;0.52;;
62709;SDS011;48770;51.624;5.886;2024-01-07T12:45:27;0.88;;;0.70;;
62709;SDS011;48770;51.624;5.886;2024-01-07T12:47:58;0.70;;;0.40;;
62709;SDS011;48770;51.624;5.886;2024-01-07T12:50:27;0.68;;;0.45;;
62709;SDS011;48770;51.624;5.886;2024-01-07T12:52:56;0.70;;;0.60;;
62709;SDS011;48770;51.624;5.886;2024-01-07T12:55:22;1.17;;;0.73;;
62709;SDS011;48770;51.624;5.886;2024-01-07T12:57:48;1.10;;;0.60;;
62709;SDS011;48770;51.624;5.886;2024-01-07T13:00:43;1.30;;;0.60;;
62709;SDS011;48770;51.624;5.886;2024-01-07T13:03:20;0.70;;;0.40;;
62709;SDS011;48770;51.624;5.886;2024-01-07T13:13:09;1.17;;;0.63;;
62709;SDS011;48770;51.624;5.886;2024-01-07T13:26:37;0.40;;;0.40;;
62709;SDS011;48770;51.624;5.886;2024-01-07T13:56:25;0.75;;;0.50;;
62709;SDS011;48770;51.624;5.886;2024-01-07T14:16:17;0.50;;;0.40;;
62709;SDS011;48770;51.624;5.886;2024-01-07T14:19:27;0.90;;;0.52;;
62709;SDS011;48770;51.624;5.886;2024-01-07T14:21:53;1.02;;;0.60;;
62709;SDS011;48770;51.624;5.886;2024-01-07T14:24:19;0.98;;;0.50;;
62709;SDS011;48770;51.624;5.886;2024-01-07T14:47:19;0.77;;;0.50;;
62709;SDS011;48770;51.624;5.886;2024-01-07T14:49:37;1.17;;;0.50;;
62709;SDS011;48770;51.624;5.886;2024-01-07T14:52:08;0.68;;;0.30;;
62709;SDS011;48770;51.624;5.886;2024-01-07T15:03:41;0.60;;;0.47;;
62709;SDS011;48770;51.624;5.886;2024-01-07T15:06:48;0.52;;;0.35;;
62709;SDS011;48770;51.624;5.886;2024-01-07T15:13:12;1.17;;;0.50;;
62709;SDS011;48770;51.624;5.886;2024-01-07T15:15:40;0.60;;;0.40;;
62709;SDS011;48770;51.624;5.886;2024-01-07T15:18:06;0.50;;;0.35;;
62709;SDS011;48770;51.624;5.886;2024-01-07T15:20:31;1.10;;;0.50;;
62709;SDS011;48770;51.624;5.886;2024-01-07T15:23:00;1.58;;;0.60;;
62709;SDS011;48770;51.624;5.886;2024-01-07T15:25:27;1.00;;;0.47;;
62709;SDS011;48770;51.624;5.886;2024-01-07T15:28:07;0.50;;;0.40;;
62709;SDS011;48770;51.624;5.886;2024-01-07T15:30:38;0.40;;;0.38;;
62709;SDS011;48770;51.624;5.886;2024-01-07T15:33:42;0.52;;;0.40;;
62709;SDS011;48770;51.624;5.886;2024-01-07T15:36:07;0.77;;;0.38;;
62709;SDS011;48770;51.624;5.886;2024-01-07T15:38:48;0.57;;;0.30;;
62709;SDS011;48770;51.624;5.886;2024-01-07T15:41:40;0.75;;;0.40;;
62709;SDS011;48770;51.624;5.886;2024-01-07T15:44:05;1.10;;;0.50;;
62709;SDS011;48770;51.624;5.886;2024-01-07T15:46:37;0.60;;;0.40;;
62709;SDS011;48770;51.624;5.886;2024-01-07T15:49:08;0.95;;;0.43;;
62709;SDS011;48770;51.624;5.886;2024-01-07T15:54:40;0.25;;;0.22;;
62709;SDS011;48770;51.624;5.886;2024-01-07T15:57:15;0.47;;;0.40;;
62709;SDS011;48770;51.624;5.886;2024-01-07T15:59:53;0.55;;;0.40;;
62709;SDS011;48770;51.624;5.886;2024-01-07T16:26:42;0.77;;;0.30;;
62709;SDS011;48770;51.624;5.886;2024-01-07T16:29:09;0.55;;;0.30;;
62709;SDS011;48770;51.624;5.886;2024-01-07T16:32:31;0.88;;;0.35;;
62709;SDS011;48770;51.624;5.886;2024-01-07T16:34:50;0.38;;;0.28;;
62709;SDS011;48770;51.624;5.886;2024-01-07T16:40:29;0.38;;;0.25;;
62709;SDS011;48770;51.624;5.886;2024-01-07T16:43:36;0.60;;;0.30;;
62709;SDS011;48770;51.624;5.886;2024-01-07T16:46:07;0.30;;;0.30;;
62709;SDS011;48770;51.624;5.886;2024-01-07T16:48:39;0.35;;;0.30;;
62709;SDS011;48770;51.624;5.886;2024-01-07T16:51:26;0.55;;;0.35;;
62709;SDS011;48770;51.624;5.886;2024-01-07T16:54:15;0.45;;;0.32;;
62709;SDS011;48770;51.624;5.886;2024-01-07T16:56:40;0.95;;;0.40;;
62709;SDS011;48770;51.624;5.886;2024-01-07T17:02:19;0.52;;;0.35;;
62709;SDS011;48770;51.624;5.886;2024-01-07T17:04:47;0.57;;;0.30;;
62709;SDS011;48770;51.624;5.886;2024-01-07T17:07:13;0.25;;;0.20;;
62709;SDS011;48770;51.624;5.886;2024-01-07T17:09:48;0.52;;;0.38;;
62709;SDS011;48770;51.624;5.886;2024-01-07T17:12:17;0.73;;;0.40;;
62709;SDS011;48770;51.624;5.886;2024-01-07T17:14:50;0.45;;;0.30;;
62709;SDS011;48770;51.624;5.886;2024-01-07T17:17:41;0.52;;;0.30;;
62709;SDS011;48770;51.624;5.886;2024-01-07T17:20:45;0.70;;;0.38;;
62709;SDS011;48770;51.624;5.886;2024-01-07T17:23:12;0.40;;;0.30;;
62709;SDS011;48770;51.624;5.886;2024-01-07T17:25:45;0.30;;;0.30;;
62709;SDS011;48770;51.624;5.886;2024-01-07T17:28:16;0.35;;;0.20;;
62709;SDS011;48770;51.624;5.886;2024-01-07T17:30:48;0.30;;;0.20;;
62709;SDS011;48770;51.624;5.886;2024-01-07T17:33:19;1.20;;;0.57;;
62709;SDS011;48770;51.624;5.886;2024-01-07T17:35:56;0.38;;;0.30;;
62709;SDS011;48770;51.624;5.886;2024-01-07T17:38:24;0.30;;;0.22;;
62709;SDS011;48770;51.624;5.886;2024-01-07T17:41:05;0.50;;;0.30;;
62709;SDS011;48770;51.624;5.886;2024-01-07T17:43:31;0.43;;;0.30;;
62709;SDS011;48770;51.624;5.886;2024-01-07T17:45:56;1.13;;;0.20;;
62709;SDS011;48770;51.624;5.886;2024-01-07T17:48:25;0.50;;;0.13;;
62709;SDS011;48770;51.624;5.886;2024-01-07T17:51:18;0.60;;;0.27;;
62709;SDS011;48770;51.624;5.886;2024-01-07T17:53:44;0.50;;;0.20;;
62709;SDS011;48770;51.624;5.886;2024-01-07T17:59:08;0.50;;;0.30;;
62709;SDS011;48770;51.624;5.886;2024-01-07T18:01:46;0.47;;;0.30;;
62709;SDS011;48770;51.624;5.886;2024-01-07T18:08:14;0.75;;;0.60;;
62709;SDS011;48770;51.624;5.886;2024-01-07T18:10:41;0.40;;;0.30;;
62709;SDS011;48770;51.624;5.886;2024-01-07T18:13:16;2.05;;;0.45;;
62709;SDS011;48770;51.624;5.886;2024-01-07T18:18:42;0.20;;;0.20;;
62709;SDS011;48770;51.624;5.886;2024-01-07T18:21:10;0.35;;;0.20;;
62709;SDS011;48770;51.624;5.886;2024-01-07T18:27:04;0.30;;;0.20;;
62709;SDS011;48770;51.624;5.886;2024-01-07T18:29:29;0.80;;;0.30;;
62709;SDS011;48770;51.624;5.886;2024-01-07T18:32:04;0.60;;;0.30;;
62709;SDS011;48770;51.624;5.886;2024-01-07T18:34:54;0.93;;;0.30;;
62709;SDS011;48770;51.624;5.886;2024-01-07T18:37:28;0.50;;;0.30;;
62709;SDS011;48770;51.624;5.886;2024-01-07T18:40:14;0.47;;;0.40;;
62709;SDS011;48770;51.624;5.886;2024-01-07T18:43:24;0.20;;;0.20;;
62709;SDS011;48770;51.624;5.886;2024-01-07T18:51:59;0.70;;;0.40;;
62709;SDS011;48770;51.624;5.886;2024-01-07T19:18:14;0.50;;;0.40;;
62709;SDS011;48770;51.624;5.886;2024-01-07T19:20:40;0.70;;;0.43;;